KFSE

Fosston Municipal Airport

Fosston, Minnesota, USA
METAR KFSE 210355Z AUTO 13003KT 10SM CLR 10/M03 A3016 RMK AO2
Observed Flight Rules
May-21 @ 03:55 UTC (3 hours ago) Visual Flight Rules
Wind Visibility Clouds
130° at 3 knots 10 miles
  • Clear skies
Temperatures Readings
Current 10°C / 50°F
Dewpoint -3°C / 27°F
Humidity 40%
Altimeter 30.16" Hg
Pressure 1021 hPa
Elevation 389
METAR KFSE 210355Z AUTO 13003KT 10SM CLR 10/M03 A3016 RMK AO2
Observed Flight Rules
May-21 @ 03:55 UTC
(3 hours ago)
VFR
Wind Visibility
130° at 3 knots 10 miles
Clouds
  • Clear skies
Temperature Dewpoint
10°C / 50°F -3°C / 27°F
Humidity Altimeter Pressure
40% 30.16" Hg 1021 hPa